createdAt,value
2022-11-12T00:02:34.983Z,7.67
2022-11-12T00:05:22.718Z,7.72
2022-11-12T00:08:09.187Z,7.76
2022-11-12T00:10:55.475Z,7.73
2022-11-12T00:13:41.880Z,7.84
2022-11-12T00:16:28.527Z,7.88
2022-11-12T00:19:14.719Z,7.77
2022-11-12T00:22:02.019Z,7.71
2022-11-12T00:24:48.358Z,7.81
2022-11-12T00:27:34.811Z,7.77
2022-11-12T00:30:20.858Z,7.81
2022-11-12T00:33:08.888Z,7.76
2022-11-12T00:35:59.115Z,7.81
2022-11-12T00:38:45.246Z,7.87
2022-11-12T00:41:31.050Z,7.73
2022-11-12T00:44:17.509Z,7.86
2022-11-12T00:47:03.823Z,7.71
2022-11-12T00:49:50.761Z,7.84
2022-11-12T00:52:37.211Z,7.89
2022-11-12T00:55:23.206Z,7.92
2022-11-12T00:58:09.056Z,7.85
2022-11-12T01:00:55.031Z,7.77
2022-11-12T01:03:42.461Z,7.83
2022-11-12T01:06:30.224Z,7.89
2022-11-12T01:09:16.749Z,7.86
2022-11-12T01:12:03.349Z,7.89
2022-11-12T01:14:49.698Z,7.85
2022-11-12T01:17:38.787Z,7.83
2022-11-12T01:20:25.675Z,7.91
2022-11-12T01:23:12.217Z,7.90
2022-11-12T01:26:03.534Z,7.87
2022-11-12T01:28:53.227Z,7.82
2022-11-12T01:31:39.687Z,7.78
2022-11-12T01:34:26.524Z,7.85
2022-11-12T01:37:13.094Z,7.93
2022-11-12T01:39:59.114Z,7.93
2022-11-12T01:42:52.624Z,7.92
2022-11-12T01:45:46.631Z,7.80
2022-11-12T01:48:38.551Z,7.82
2022-11-12T01:51:32.946Z,7.87
2022-11-12T01:54:21.758Z,7.76
2022-11-12T01:57:10.782Z,7.75
2022-11-12T02:00:02.151Z,7.68
2022-11-12T02:03:00.044Z,7.68
2022-11-12T02:05:49.654Z,7.62
2022-11-12T02:08:38.889Z,7.67
2022-11-12T02:11:24.925Z,7.76
2022-11-12T02:14:12.489Z,7.68
2022-11-12T02:17:01.751Z,7.67
2022-11-12T02:19:52.661Z,7.67
2022-11-12T02:22:40.537Z,7.62
2022-11-12T02:25:28.426Z,7.61
2022-11-12T02:28:16.851Z,7.58
2022-11-12T02:31:03.091Z,7.60
2022-11-12T02:33:50.886Z,7.71
2022-11-12T02:36:37.547Z,7.72
2022-11-12T02:39:24.011Z,7.65
2022-11-12T02:42:11.943Z,7.62
2022-11-12T02:44:57.794Z,7.62
2022-11-12T02:47:44.090Z,7.54
2022-11-12T02:50:30.148Z,7.53
2022-11-12T02:53:19.416Z,7.57
2022-11-12T02:56:05.809Z,7.54
2022-11-12T02:58:51.857Z,7.60
2022-11-12T03:01:38.249Z,7.60
2022-11-12T03:04:24.619Z,7.58
2022-11-12T03:07:10.420Z,7.54
2022-11-12T03:09:56.710Z,7.50
2022-11-12T03:12:43.272Z,7.52
2022-11-12T03:15:30.314Z,7.43
2022-11-12T03:18:16.693Z,7.49
2022-11-12T03:21:02.505Z,7.50
2022-11-12T03:23:49.438Z,7.56
2022-11-12T03:26:36.201Z,7.56
2022-11-12T03:29:23.043Z,7.63
2022-11-12T03:32:09.242Z,7.60
2022-11-12T03:34:55.891Z,7.75
2022-11-12T03:37:41.942Z,7.75
2022-11-12T03:40:29.517Z,7.79
2022-11-12T03:43:15.869Z,7.72
2022-11-12T03:46:02.481Z,7.75
2022-11-12T03:48:48.643Z,7.68
2022-11-12T03:51:34.886Z,7.74
2022-11-12T03:54:20.628Z,7.58
2022-11-12T03:57:07.038Z,7.50
2022-11-12T03:59:54.809Z,7.50
2022-11-12T04:02:41.729Z,7.53
2022-11-12T04:05:46.890Z,7.62
2022-11-12T04:08:36.277Z,7.68
2022-11-12T04:11:23.910Z,7.79
2022-11-12T04:14:10.336Z,7.82
2022-11-12T04:17:15.271Z,7.79
2022-11-12T04:20:20.831Z,7.70
2022-11-12T04:23:06.866Z,7.70
2022-11-12T04:26:12.006Z,7.83
2022-11-12T04:29:18.697Z,7.76
2022-11-12T04:32:05.296Z,7.78
2022-11-12T04:34:51.710Z,7.77
2022-11-12T04:37:46.072Z,7.71
2022-11-12T04:40:51.222Z,7.80
2022-11-12T04:44:01.294Z,7.89
2022-11-12T04:46:48.461Z,7.95
2022-11-12T04:49:34.935Z,8.01
2022-11-12T04:52:21.369Z,8.04
2022-11-12T04:55:08.420Z,8.05
2022-11-12T04:58:00.434Z,7.92
2022-11-12T05:00:48.095Z,7.90
2022-11-12T05:03:33.988Z,8.00
2022-11-12T05:06:39.599Z,8.01
2022-11-12T05:09:28.209Z,7.89
2022-11-12T05:12:14.582Z,7.86
2022-11-12T05:15:01.213Z,7.92
2022-11-12T05:17:48.680Z,7.85
2022-11-12T05:20:36.547Z,7.80
2022-11-12T05:23:23.081Z,7.76
2022-11-12T05:26:09.841Z,7.84
2022-11-12T05:28:57.130Z,7.88
2022-11-12T05:31:43.681Z,7.92
2022-11-12T05:34:30.305Z,8.03
2022-11-12T05:37:17.259Z,8.02
2022-11-12T05:40:03.544Z,7.89
2022-11-12T05:42:49.664Z,7.88
2022-11-12T05:45:36.554Z,7.94
2022-11-12T05:48:24.538Z,7.97
2022-11-12T05:51:14.319Z,8.05
2022-11-12T05:54:01.732Z,8.17
2022-11-12T05:56:48.599Z,8.21
2022-11-12T05:59:35.894Z,8.13
2022-11-12T06:02:22.285Z,8.24
2022-11-12T06:05:08.938Z,8.25
2022-11-12T06:07:55.502Z,8.21
2022-11-12T06:10:41.940Z,8.30
2022-11-12T06:13:28.496Z,8.43
2022-11-12T06:16:14.699Z,8.44
2022-11-12T06:19:01.076Z,8.55
2022-11-12T06:21:48.370Z,8.57
2022-11-12T06:24:35.529Z,8.50
2022-11-12T06:27:24.046Z,8.55
2022-11-12T06:30:10.697Z,8.60
2022-11-12T06:32:57.021Z,8.61
2022-11-12T06:35:43.446Z,8.57
2022-11-12T06:38:31.086Z,8.68
2022-11-12T06:41:17.485Z,8.90
2022-11-12T06:44:06.013Z,8.75
2022-11-12T06:46:53.035Z,8.84
2022-11-12T06:49:39.464Z,8.96
2022-11-12T06:52:25.652Z,9.03
2022-11-12T06:55:12.885Z,9.14
2022-11-12T06:57:59.406Z,9.17
2022-11-12T07:00:45.420Z,9.18
2022-11-12T07:03:32.040Z,9.25
2022-11-12T07:06:20.309Z,9.24
2022-11-12T07:09:06.902Z,9.35
2022-11-12T07:11:53.347Z,9.36
2022-11-12T07:14:39.909Z,9.36
2022-11-12T07:17:26.129Z,9.27
2022-11-12T07:20:13.550Z,9.31
2022-11-12T07:23:02.601Z,9.29
2022-11-12T07:25:56.733Z,9.34
2022-11-12T07:28:45.527Z,9.30
2022-11-12T07:31:32.057Z,9.25
2022-11-12T07:34:17.864Z,9.36
2022-11-12T07:37:04.240Z,9.38
2022-11-12T07:39:50.742Z,9.41
2022-11-12T07:42:38.886Z,9.46
2022-11-12T07:45:24.835Z,9.58
2022-11-12T07:48:11.243Z,9.57
2022-11-12T07:51:14.063Z,9.74
2022-11-12T07:54:01.232Z,9.75
2022-11-12T07:56:47.649Z,9.72
2022-11-12T07:59:33.874Z,9.73
2022-11-12T08:02:19.998Z,9.70
2022-11-12T08:05:13.590Z,9.71
2022-11-12T08:08:03.306Z,9.62
2022-11-12T08:10:54.684Z,9.65
2022-11-12T08:13:43.535Z,9.67
2022-11-12T08:16:30.046Z,9.84
2022-11-12T08:19:16.232Z,9.81
2022-11-12T08:22:02.525Z,9.71
2022-11-12T08:24:48.617Z,9.74
2022-11-12T08:27:36.656Z,9.83
2022-11-12T08:30:22.897Z,9.92
2022-11-12T08:33:09.854Z,10.04
2022-11-12T08:35:57.120Z,10.30
2022-11-12T08:38:43.696Z,10.46
2022-11-12T08:41:30.968Z,10.38
2022-11-12T08:44:19.820Z,10.37
2022-11-12T08:47:06.319Z,10.44
2022-11-12T08:49:52.580Z,10.64
2022-11-12T08:52:40.444Z,10.83
2022-11-12T08:55:26.764Z,10.77
2022-11-12T08:58:13.461Z,10.72
2022-11-12T09:01:08.287Z,10.81
2022-11-12T09:03:55.038Z,10.86
2022-11-12T09:06:43.019Z,11.05
2022-11-12T09:09:29.679Z,10.81
2022-11-12T09:12:19.880Z,10.78
2022-11-12T09:18:15.309Z,10.60
2022-11-12T09:21:05.678Z,10.52
2022-11-12T09:23:52.221Z,10.27
2022-11-12T09:26:39.403Z,10.25
2022-11-12T09:29:25.364Z,10.24
2022-11-12T09:32:11.262Z,10.19
2022-11-12T09:34:57.767Z,10.25
2022-11-12T09:37:44.177Z,10.46
2022-11-12T09:40:36.591Z,10.49
2022-11-12T09:43:37.473Z,10.82
2022-11-12T09:46:35.229Z,10.90
2022-11-12T09:49:29.047Z,10.84
2022-11-12T09:52:34.319Z,10.72
2022-11-12T09:55:38.716Z,10.68
2022-11-12T09:58:26.327Z,10.71
2022-11-12T10:01:34.560Z,10.63
2022-11-12T10:04:39.095Z,10.57
2022-11-12T10:07:49.597Z,10.78
2022-11-12T10:10:49.217Z,10.83
2022-11-12T10:13:43.919Z,10.83
2022-11-12T10:16:48.863Z,10.98
2022-11-12T10:20:06.433Z,10.84
2022-11-12T10:23:27.724Z,10.66
2022-11-12T10:26:17.134Z,10.56
2022-11-12T10:29:07.984Z,10.50
2022-11-12T10:31:53.724Z,10.52
2022-11-12T10:34:40.348Z,10.56
2022-11-12T10:38:12.709Z,10.51
2022-11-12T10:41:18.947Z,10.61
2022-11-12T10:44:06.969Z,10.74
2022-11-12T10:47:16.106Z,10.94
2022-11-12T10:50:04.949Z,10.79
2022-11-12T10:53:13.086Z,10.69
2022-11-12T10:56:01.430Z,10.57
2022-11-12T10:59:25.779Z,10.65
2022-11-12T11:02:19.297Z,10.86
2022-11-12T11:05:29.855Z,10.99
2022-11-12T11:08:36.466Z,10.80
2022-11-12T11:11:28.585Z,10.64
2022-11-12T11:14:28.537Z,10.43
2022-11-12T11:17:18.034Z,10.54
2022-11-12T11:20:14.981Z,10.51
2022-11-12T11:23:42.990Z,10.68
2022-11-12T11:26:56.985Z,10.67
2022-11-12T11:29:59.777Z,10.62
2022-11-12T11:33:02.623Z,10.48
2022-11-12T11:36:16.392Z,10.71
2022-11-12T11:39:21.637Z,10.73
2022-11-12T11:42:13.470Z,10.87
2022-11-12T11:45:23.584Z,10.85
2022-11-12T11:48:32.247Z,10.88
2022-11-12T11:51:33.505Z,10.89
2022-11-12T11:54:45.411Z,11.13
2022-11-12T11:57:54.454Z,11.08
2022-11-12T12:00:44.682Z,11.06
2022-11-12T12:04:00.305Z,10.83
2022-11-12T12:06:53.921Z,10.85
2022-11-12T12:10:17.488Z,10.76
2022-11-12T12:13:13.787Z,10.57
2022-11-12T12:16:02.452Z,10.65
2022-11-12T12:19:10.689Z,10.77
2022-11-12T12:22:01.073Z,10.90
2022-11-12T12:24:55.431Z,10.90
2022-11-12T12:28:21.740Z,10.45
2022-11-12T12:31:14.892Z,10.54
2022-11-12T12:34:13.067Z,10.51
2022-11-12T12:37:39.589Z,10.65
2022-11-12T12:40:34.327Z,10.76
2022-11-12T12:43:35.298Z,10.79
2022-11-12T12:46:26.147Z,10.79
2022-11-12T12:49:15.815Z,10.75
2022-11-12T12:52:01.704Z,10.79
2022-11-12T12:54:47.864Z,10.82
2022-11-12T12:57:38.209Z,10.69
2022-11-12T13:00:29.943Z,10.70
2022-11-12T13:03:44.726Z,10.48
2022-11-12T13:06:46.735Z,10.37
2022-11-12T13:09:33.360Z,10.26
2022-11-12T13:12:19.461Z,10.13
2022-11-12T13:15:15.154Z,10.02
2022-11-12T13:18:01.703Z,10.00
2022-11-12T13:21:08.264Z,10.00
2022-11-12T13:24:12.479Z,9.84
2022-11-12T13:26:59.727Z,9.72
2022-11-12T13:29:48.069Z,9.77
2022-11-12T13:32:47.022Z,9.81
2022-11-12T13:35:37.688Z,9.73
2022-11-12T13:38:24.284Z,9.65
2022-11-12T13:41:11.088Z,9.55
2022-11-12T13:43:57.600Z,9.51
2022-11-12T13:46:45.503Z,9.49
2022-11-12T13:49:32.200Z,9.39
2022-11-12T13:52:19.416Z,9.38
2022-11-12T13:55:26.857Z,9.26
2022-11-12T13:58:20.162Z,9.18
2022-11-12T14:01:08.017Z,9.15
2022-11-12T14:03:54.259Z,9.08
2022-11-12T14:06:56.652Z,9.16
2022-11-12T14:09:49.951Z,9.13
2022-11-12T14:12:50.357Z,9.07
2022-11-12T14:16:09.696Z,9.07
2022-11-12T14:19:08.795Z,8.86
2022-11-12T14:22:11.056Z,8.92
2022-11-12T14:25:02.648Z,8.88
2022-11-12T14:27:55.537Z,8.84
2022-11-12T14:30:45.226Z,8.78
2022-11-12T14:33:33.251Z,8.77
2022-11-12T14:36:20.268Z,8.78
2022-11-12T14:39:07.386Z,8.76
2022-11-12T14:41:55.473Z,8.79
2022-11-12T14:44:41.888Z,8.75
2022-11-12T14:47:27.863Z,8.73
2022-11-12T14:50:23.344Z,8.70
2022-11-12T14:53:25.281Z,8.65
2022-11-12T14:56:21.622Z,8.59
2022-11-12T14:59:12.845Z,8.58
2022-11-12T15:02:31.416Z,8.50
2022-11-12T15:05:18.387Z,8.52
2022-11-12T15:08:13.608Z,8.50
2022-11-12T15:11:26.706Z,8.48
2022-11-12T15:14:21.874Z,8.42
2022-11-12T15:17:28.976Z,8.36
2022-11-12T15:20:17.735Z,8.39
2022-11-12T15:23:04.533Z,8.31
2022-11-12T15:26:01.158Z,8.29
2022-11-12T15:29:01.577Z,8.28
2022-11-12T15:31:53.952Z,8.22
2022-11-12T15:34:40.174Z,8.21
2022-11-12T15:37:31.086Z,8.18
2022-11-12T15:40:21.987Z,8.19
2022-11-12T15:43:21.249Z,8.22
2022-11-12T15:46:14.437Z,8.22
2022-11-12T15:49:01.374Z,8.24
2022-11-12T15:51:47.898Z,8.17
2022-11-12T15:54:39.740Z,8.20
2022-11-12T15:57:31.850Z,8.16
2022-11-12T16:00:25.995Z,8.17
2022-11-12T16:03:17.615Z,8.18
2022-11-12T16:06:08.573Z,8.11
2022-11-12T16:08:55.239Z,8.15
2022-11-12T16:11:41.744Z,8.12
2022-11-12T16:14:28.290Z,8.15
2022-11-12T16:17:16.951Z,8.11
2022-11-12T16:20:23.300Z,8.17
2022-11-12T16:23:09.947Z,8.18
2022-11-12T16:25:56.284Z,8.16
2022-11-12T16:28:43.927Z,8.16
2022-11-12T16:31:30.470Z,8.17
2022-11-12T16:34:16.737Z,8.20
2022-11-12T16:37:03.430Z,8.23
2022-11-12T16:39:49.442Z,8.20
2022-11-12T16:42:36.343Z,8.22
2022-11-12T16:45:25.688Z,8.22
2022-11-12T16:48:22.395Z,8.19
2022-11-12T16:51:17.941Z,8.19
2022-11-12T16:54:04.965Z,8.23
2022-11-12T16:56:52.305Z,8.22
2022-11-12T16:59:38.945Z,8.22
2022-11-12T17:02:26.375Z,8.20
2022-11-12T17:05:20.568Z,8.17
2022-11-12T17:08:06.560Z,8.13
2022-11-12T17:10:52.534Z,8.11
2022-11-12T17:13:39.025Z,8.02
2022-11-12T17:16:25.415Z,8.03
2022-11-12T17:19:12.018Z,8.01
2022-11-12T17:21:58.741Z,8.05
2022-11-12T17:24:44.631Z,8.09
2022-11-12T17:27:31.596Z,8.12
2022-11-12T17:30:18.398Z,8.13
2022-11-12T17:33:04.635Z,8.11
2022-11-12T17:35:52.018Z,8.08
2022-11-12T17:38:38.678Z,8.04
2022-11-12T17:41:26.366Z,8.04
2022-11-12T17:44:17.333Z,8.05
2022-11-12T17:47:04.105Z,8.03
2022-11-12T17:49:50.050Z,8.01
2022-11-12T17:52:36.474Z,7.95
2022-11-12T17:55:22.508Z,7.94
2022-11-12T17:58:09.023Z,7.91
2022-11-12T18:00:54.877Z,7.90
2022-11-12T18:03:45.030Z,7.88
2022-11-12T18:06:34.227Z,7.88
2022-11-12T18:09:20.242Z,7.92
2022-11-12T18:12:06.858Z,7.92
2022-11-12T18:14:53.050Z,7.94
2022-11-12T18:17:59.552Z,7.93
2022-11-12T18:20:46.065Z,7.97
2022-11-12T18:23:35.791Z,7.93
2022-11-12T18:26:22.127Z,7.99
2022-11-12T18:29:08.279Z,7.98
2022-11-12T18:31:54.697Z,7.96
2022-11-12T18:34:45.152Z,8.03
2022-11-12T18:37:31.759Z,8.02
2022-11-12T18:40:18.227Z,8.08
2022-11-12T18:43:04.392Z,8.11
2022-11-12T18:46:01.440Z,8.12
2022-11-12T18:48:47.982Z,8.18
2022-11-12T18:51:34.829Z,8.19
2022-11-12T18:54:21.136Z,8.25
2022-11-12T18:57:07.379Z,8.27
2022-11-12T18:59:55.141Z,8.29
2022-11-12T19:02:43.225Z,8.32
2022-11-12T19:05:29.510Z,8.37
2022-11-12T19:08:16.959Z,8.40
2022-11-12T19:11:11.518Z,8.41
2022-11-12T19:13:58.607Z,8.47
2022-11-12T19:16:45.171Z,8.56
2022-11-12T19:19:31.593Z,8.58
2022-11-12T19:22:18.353Z,8.60
2022-11-12T19:25:05.097Z,8.63
2022-11-12T19:27:51.536Z,8.65
2022-11-12T19:30:38.696Z,8.66
2022-11-12T19:33:25.051Z,8.65
2022-11-12T19:36:17.222Z,8.67
2022-11-12T19:39:03.721Z,8.69
2022-11-12T19:41:50.381Z,8.67
2022-11-12T19:44:36.575Z,8.70
2022-11-12T19:47:22.746Z,8.65
2022-11-12T19:50:09.916Z,8.64
2022-11-12T19:52:56.647Z,8.64
2022-11-12T19:55:43.101Z,8.63
2022-11-12T19:58:31.851Z,8.63
2022-11-12T20:01:19.019Z,8.65
2022-11-12T20:04:05.481Z,8.61
2022-11-12T20:06:52.231Z,8.57
2022-11-12T20:09:38.699Z,8.64
2022-11-12T20:12:25.355Z,8.63
2022-11-12T20:15:12.025Z,8.60
2022-11-12T20:17:58.340Z,8.56
2022-11-12T20:20:55.908Z,8.56
2022-11-12T20:23:43.178Z,8.58
2022-11-12T20:26:29.728Z,8.60
2022-11-12T20:29:15.869Z,8.57
2022-11-12T20:32:02.948Z,8.55
2022-11-12T20:34:50.278Z,8.53
2022-11-12T20:37:37.014Z,8.42
2022-11-12T20:40:22.967Z,8.41
2022-11-12T20:43:09.232Z,8.40
2022-11-12T20:45:55.425Z,8.38
2022-11-12T20:48:43.586Z,8.35
2022-11-12T20:51:30.354Z,8.28
2022-11-12T20:54:16.436Z,8.20
2022-11-12T20:57:03.354Z,8.10
2022-11-12T20:59:51.481Z,8.07
2022-11-12T21:02:37.789Z,8.01
2022-11-12T21:05:24.544Z,7.98
2022-11-12T21:08:10.610Z,7.95
2022-11-12T21:10:58.044Z,7.96
2022-11-12T21:13:44.277Z,7.94
2022-11-12T21:16:30.921Z,7.89
2022-11-12T21:19:17.405Z,7.93
2022-11-12T21:22:03.765Z,7.93
2022-11-12T21:24:50.048Z,7.94
2022-11-12T21:27:37.925Z,7.93
2022-11-12T21:30:24.222Z,7.94
2022-11-12T21:33:12.201Z,7.90
2022-11-12T21:35:59.681Z,7.89
2022-11-12T21:38:46.585Z,7.92
2022-11-12T21:41:33.137Z,7.90
2022-11-12T21:44:19.813Z,7.86
2022-11-12T21:47:07.039Z,7.85
2022-11-12T21:49:54.853Z,7.85
2022-11-12T21:55:52.363Z,7.94
2022-11-12T21:58:39.458Z,7.91
2022-11-12T22:01:28.604Z,7.86
2022-11-12T22:04:18.259Z,7.87
2022-11-12T22:07:05.014Z,7.94
2022-11-12T22:09:56.476Z,8.04
2022-11-12T22:13:04.855Z,8.01
2022-11-12T22:15:50.759Z,8.15
2022-11-12T22:18:39.061Z,8.20
2022-11-12T22:21:27.036Z,8.19
2022-11-12T22:24:13.400Z,8.20
2022-11-12T22:27:05.078Z,8.20
2022-11-12T22:29:52.024Z,8.29
2022-11-12T22:32:38.799Z,8.41
2022-11-12T22:35:24.982Z,8.43
2022-11-12T22:38:12.259Z,8.44
2022-11-12T22:41:09.155Z,8.47
2022-11-12T22:43:58.953Z,8.46
2022-11-12T22:46:45.640Z,8.43
2022-11-12T22:49:31.437Z,8.43
2022-11-12T22:52:17.915Z,8.39
2022-11-12T22:55:04.826Z,8.43
2022-11-12T22:57:51.386Z,8.38
2022-11-12T23:00:42.557Z,8.43
2022-11-12T23:03:30.130Z,8.48
2022-11-12T23:06:17.520Z,8.51
2022-11-12T23:09:04.356Z,8.48
2022-11-12T23:11:51.134Z,8.46
2022-11-12T23:14:37.633Z,8.46
2022-11-12T23:17:24.198Z,8.45
2022-11-12T23:20:11.881Z,8.49
2022-11-12T23:22:58.172Z,8.46
2022-11-12T23:25:45.480Z,8.40
2022-11-12T23:28:33.884Z,8.51
2022-11-12T23:31:26.160Z,8.54
2022-11-12T23:34:12.998Z,8.55
2022-11-12T23:36:59.888Z,8.54
2022-11-12T23:39:46.667Z,8.49
2022-11-12T23:42:32.933Z,8.49
2022-11-12T23:45:19.551Z,8.50
2022-11-12T23:48:06.158Z,8.50
2022-11-12T23:51:01.572Z,8.50
2022-11-12T23:53:49.092Z,8.46
2022-11-12T23:56:35.637Z,8.51
2022-11-12T23:59:21.804Z,8.52
